createdAt,value
2022-10-14T00:00:07.363Z,0.00
2022-10-14T00:01:07.546Z,0.00
2022-10-14T00:02:07.825Z,0.00
2022-10-14T00:03:07.877Z,0.00
2022-10-14T00:04:08.057Z,0.00
2022-10-14T00:05:08.216Z,0.00
2022-10-14T00:06:08.416Z,0.00
2022-10-14T00:07:08.564Z,0.00
2022-10-14T00:08:08.727Z,0.00
2022-10-14T00:09:08.912Z,0.00
2022-10-14T00:10:09.073Z,0.00
2022-10-14T00:11:09.248Z,0.00
2022-10-14T00:12:09.445Z,0.00
2022-10-14T00:13:09.606Z,0.00
2022-10-14T00:14:09.786Z,0.00
2022-10-14T00:15:09.956Z,0.00
2022-10-14T00:16:10.173Z,0.00
2022-10-14T00:17:10.317Z,0.00
2022-10-14T00:18:10.487Z,0.00
2022-10-14T00:19:10.667Z,0.00
2022-10-14T00:20:10.855Z,0.00
2022-10-14T00:21:11.039Z,0.00
2022-10-14T00:22:11.214Z,0.00
2022-10-14T00:23:11.377Z,0.00
2022-10-14T00:24:11.556Z,0.00
2022-10-14T00:25:11.725Z,0.00
2022-10-14T00:26:11.934Z,0.00
2022-10-14T00:27:12.077Z,0.00
2022-10-14T00:28:12.252Z,0.00
2022-10-14T00:29:12.436Z,0.00
2022-10-14T00:30:12.623Z,0.00
2022-10-14T00:31:12.815Z,0.00
2022-10-14T00:32:12.982Z,0.00
2022-10-14T00:33:13.146Z,0.00
2022-10-14T00:34:13.336Z,0.00
2022-10-14T00:35:13.511Z,0.00
2022-10-14T00:36:13.708Z,0.00
2022-10-14T00:37:13.843Z,0.00
2022-10-14T00:38:14.026Z,0.00
2022-10-14T00:39:14.195Z,0.00
2022-10-14T00:40:14.375Z,0.00
2022-10-14T00:41:14.574Z,0.00
2022-10-14T00:42:14.755Z,0.00
2022-10-14T00:43:14.905Z,0.00
2022-10-14T00:44:15.075Z,0.00
2022-10-14T00:45:15.255Z,0.00
2022-10-14T00:46:15.443Z,0.00
2022-10-14T00:47:15.634Z,0.00
2022-10-14T00:48:15.776Z,0.00
2022-10-14T00:49:15.952Z,0.00
2022-10-14T00:50:16.126Z,0.00
2022-10-14T00:51:16.316Z,0.00
2022-10-14T00:52:16.484Z,0.00
2022-10-14T00:53:16.669Z,0.00
2022-10-14T00:54:16.828Z,0.00
2022-10-14T00:55:17.011Z,0.00
2022-10-14T00:56:17.194Z,0.00
2022-10-14T00:57:17.324Z,0.00
2022-10-14T00:58:17.525Z,0.00
2022-10-14T00:59:17.708Z,0.00
2022-10-14T01:00:17.854Z,0.00
2022-10-14T01:01:18.090Z,0.00
2022-10-14T01:02:18.213Z,0.00
2022-10-14T01:03:18.394Z,0.00
2022-10-14T01:04:18.564Z,0.00
2022-10-14T01:05:18.739Z,0.00
2022-10-14T01:06:18.927Z,0.00
2022-10-14T01:07:19.411Z,0.00
2022-10-14T01:08:19.267Z,0.00
2022-10-14T01:09:19.453Z,0.00
2022-10-14T01:10:19.625Z,0.00
2022-10-14T01:11:19.814Z,0.00
2022-10-14T01:12:35.355Z,0.00
2022-10-14T01:13:21.143Z,0.00
2022-10-14T01:14:20.327Z,0.00
2022-10-14T01:15:20.503Z,0.00
2022-10-14T01:16:20.691Z,0.00
2022-10-14T01:17:20.864Z,0.00
2022-10-14T01:18:21.032Z,0.00
2022-10-14T01:19:21.204Z,0.00
2022-10-14T01:20:21.374Z,0.00
2022-10-14T01:21:21.573Z,0.00
2022-10-14T01:22:22.480Z,0.00
2022-10-14T01:23:21.894Z,0.00
2022-10-14T01:24:22.064Z,0.00
2022-10-14T01:25:22.254Z,0.00
2022-10-14T01:26:22.443Z,0.00
2022-10-14T01:27:22.583Z,0.00
2022-10-14T01:28:22.835Z,0.00
2022-10-14T01:29:22.924Z,0.00
2022-10-14T01:30:23.096Z,0.00
2022-10-14T01:31:23.295Z,0.00
2022-10-14T01:32:23.711Z,0.00
2022-10-14T01:33:23.602Z,0.00
2022-10-14T01:34:23.772Z,0.00
2022-10-14T01:35:23.940Z,0.00
2022-10-14T01:36:24.124Z,0.00
2022-10-14T01:37:24.303Z,0.00
2022-10-14T01:38:24.482Z,0.00
2022-10-14T01:39:24.663Z,0.00
2022-10-14T01:40:24.834Z,0.00
2022-10-14T01:41:25.022Z,0.00
2022-10-14T01:42:25.162Z,0.00
2022-10-14T01:43:25.342Z,0.00
2022-10-14T01:44:25.512Z,0.00
2022-10-14T01:45:25.694Z,0.00
2022-10-14T01:46:25.871Z,0.00
2022-10-14T01:47:26.052Z,0.00
2022-10-14T01:48:26.212Z,0.00
2022-10-14T01:49:26.390Z,0.00
2022-10-14T01:50:26.563Z,0.00
2022-10-14T01:51:26.742Z,0.00
2022-10-14T01:52:26.922Z,0.00
2022-10-14T01:53:27.102Z,0.00
2022-10-14T01:54:27.272Z,0.00
2022-10-14T01:55:27.461Z,0.00
2022-10-14T01:56:27.642Z,0.00
2022-10-14T01:57:27.822Z,0.00
2022-10-14T01:58:28.000Z,0.00
2022-10-14T01:59:28.172Z,0.00
2022-10-14T02:00:28.342Z,0.00
2022-10-14T02:01:28.565Z,0.00
2022-10-14T02:02:28.672Z,0.00
2022-10-14T02:03:28.854Z,0.00
2022-10-14T02:04:29.021Z,0.00
2022-10-14T02:05:29.194Z,0.00
2022-10-14T02:06:29.382Z,0.00
2022-10-14T02:07:29.562Z,0.00
2022-10-14T02:08:29.745Z,0.00
2022-10-14T02:09:29.921Z,0.00
2022-10-14T02:10:30.093Z,0.00
2022-10-14T02:11:30.289Z,0.00
2022-10-14T02:12:30.441Z,0.00
2022-10-14T02:13:30.589Z,0.00
2022-10-14T02:14:30.774Z,0.00
2022-10-14T02:15:30.947Z,0.00
2022-10-14T02:16:31.131Z,0.00
2022-10-14T02:17:31.302Z,0.00
2022-10-14T02:18:31.486Z,0.00
2022-10-14T02:19:31.652Z,0.00
2022-10-14T02:20:31.833Z,0.00
2022-10-14T02:21:32.024Z,0.00
2022-10-14T02:22:32.191Z,0.00
2022-10-14T02:23:32.371Z,0.00
2022-10-14T02:24:32.545Z,0.00
2022-10-14T02:25:32.710Z,0.00
2022-10-14T02:26:32.905Z,0.00
2022-10-14T02:27:33.081Z,0.00
2022-10-14T02:28:33.278Z,0.00
2022-10-14T02:29:33.438Z,0.00
2022-10-14T02:30:33.623Z,0.00
2022-10-14T02:31:33.787Z,0.00
2022-10-14T02:32:33.950Z,0.00
2022-10-14T02:33:34.122Z,0.00
2022-10-14T02:34:34.309Z,0.00
2022-10-14T02:35:34.460Z,0.00
2022-10-14T02:36:34.641Z,0.00
2022-10-14T02:37:34.822Z,0.00
2022-10-14T02:38:35.000Z,0.00
2022-10-14T02:39:35.202Z,0.00
2022-10-14T02:40:35.360Z,0.00
2022-10-14T02:41:35.530Z,0.00
2022-10-14T02:42:35.709Z,0.00
2022-10-14T02:43:35.891Z,0.00
2022-10-14T02:44:36.059Z,0.00
2022-10-14T02:45:36.250Z,0.00
2022-10-14T02:46:36.410Z,0.00
2022-10-14T02:47:36.587Z,0.00
2022-10-14T02:48:36.754Z,0.00
2022-10-14T02:49:36.932Z,0.00
2022-10-14T02:50:37.127Z,0.00
2022-10-14T02:51:37.289Z,0.00
2022-10-14T02:52:37.469Z,0.00
2022-10-14T02:53:37.649Z,0.00
2022-10-14T02:54:37.850Z,0.00
2022-10-14T02:55:38.019Z,0.00
2022-10-14T02:56:38.196Z,0.00
2022-10-14T02:57:38.381Z,0.00
2022-10-14T02:58:38.543Z,0.00
2022-10-14T02:59:38.750Z,0.00
2022-10-14T03:00:38.889Z,0.00
2022-10-14T03:01:39.117Z,0.00
2022-10-14T03:02:39.289Z,0.00
2022-10-14T03:03:39.399Z,0.00
2022-10-14T03:04:39.593Z,0.00
2022-10-14T03:05:39.805Z,0.00
2022-10-14T03:06:39.940Z,0.00
2022-10-14T03:07:40.109Z,0.00
2022-10-14T03:08:40.269Z,0.00
2022-10-14T03:09:40.470Z,0.00
2022-10-14T03:10:40.608Z,0.00
2022-10-14T03:11:40.780Z,0.00
2022-10-14T03:12:40.971Z,0.00
2022-10-14T03:13:41.109Z,0.00
2022-10-14T03:14:41.278Z,0.00
2022-10-14T03:15:41.460Z,0.00
2022-10-14T03:16:41.628Z,0.00
2022-10-14T03:17:41.808Z,0.00
2022-10-14T03:18:41.978Z,0.00
2022-10-14T03:19:42.178Z,0.00
2022-10-14T03:20:42.315Z,0.00
2022-10-14T03:21:42.489Z,0.00
2022-10-14T03:22:42.659Z,0.00
2022-10-14T03:23:42.836Z,0.00
2022-10-14T03:24:43.047Z,0.00
2022-10-14T03:25:43.177Z,0.00
2022-10-14T03:26:43.349Z,0.00
2022-10-14T03:27:43.527Z,0.00
2022-10-14T03:28:43.759Z,0.00
2022-10-14T03:29:43.907Z,0.00
2022-10-14T03:30:44.052Z,0.00
2022-10-14T03:31:44.217Z,0.00
2022-10-14T03:32:44.388Z,0.00
2022-10-14T03:33:44.557Z,0.00
2022-10-14T03:34:44.741Z,0.00
2022-10-14T03:35:44.916Z,0.00
2022-10-14T03:36:45.069Z,0.00
2022-10-14T03:37:45.237Z,0.00
2022-10-14T03:38:45.397Z,0.00
2022-10-14T03:39:45.618Z,0.00
2022-10-14T03:40:45.798Z,0.00
2022-10-14T03:41:45.977Z,0.00
2022-10-14T03:42:46.136Z,0.00
2022-10-14T03:43:46.324Z,0.00
2022-10-14T03:44:46.497Z,0.00
2022-10-14T03:45:46.676Z,0.00
2022-10-14T03:46:46.854Z,0.00
2022-10-14T03:47:47.007Z,0.00
2022-10-14T03:48:47.170Z,0.00
2022-10-14T03:49:47.366Z,0.00
2022-10-14T03:50:47.497Z,0.00
2022-10-14T03:51:47.675Z,0.00
2022-10-14T03:52:50.961Z,0.00
2022-10-14T03:53:49.046Z,0.00
2022-10-14T03:54:48.216Z,0.00
2022-10-14T03:55:48.377Z,0.00
2022-10-14T03:56:48.536Z,0.00
2022-10-14T03:57:48.715Z,0.00
2022-10-14T03:58:48.886Z,0.00
2022-10-14T03:59:49.077Z,0.00
2022-10-14T04:00:49.219Z,0.00
2022-10-14T04:01:49.423Z,0.00
2022-10-14T04:02:49.556Z,0.00
2022-10-14T04:03:49.733Z,0.00
2022-10-14T04:04:49.916Z,0.00
2022-10-14T04:05:50.066Z,0.00
2022-10-14T04:06:50.237Z,0.00
2022-10-14T04:07:50.421Z,0.00
2022-10-14T04:08:50.575Z,0.00
2022-10-14T04:09:50.767Z,0.00
2022-10-14T04:10:50.906Z,0.00
2022-10-14T04:11:51.080Z,0.00
2022-10-14T04:12:51.247Z,0.00
2022-10-14T04:13:51.416Z,0.00
2022-10-14T04:14:51.601Z,0.00
2022-10-14T04:15:51.768Z,0.00
2022-10-14T04:16:51.951Z,0.00
2022-10-14T04:17:52.106Z,0.00
2022-10-14T04:18:52.286Z,0.00
2022-10-14T04:19:52.488Z,0.00
2022-10-14T04:20:52.627Z,0.00
2022-10-14T04:21:52.825Z,0.00
2022-10-14T04:22:52.976Z,0.00
2022-10-14T04:23:53.147Z,0.00
2022-10-14T04:24:53.315Z,0.00
2022-10-14T04:25:53.490Z,0.00
2022-10-14T04:26:53.675Z,0.00
2022-10-14T04:27:53.845Z,0.00
2022-10-14T04:28:54.063Z,0.00
2022-10-14T04:29:54.190Z,0.00
2022-10-14T04:30:54.335Z,0.00
2022-10-14T04:31:54.526Z,0.00
2022-10-14T04:32:54.665Z,0.00
2022-10-14T04:33:54.827Z,0.00
2022-10-14T04:34:54.995Z,0.00
2022-10-14T04:35:55.167Z,0.00
2022-10-14T04:36:55.376Z,0.00
2022-10-14T04:37:55.495Z,0.00
2022-10-14T04:38:55.676Z,0.00
2022-10-14T04:39:55.844Z,0.00
2022-10-14T04:40:56.006Z,0.00
2022-10-14T04:41:56.239Z,0.00
2022-10-14T04:42:56.369Z,0.00
2022-10-14T04:43:56.535Z,0.00
2022-10-14T04:44:56.755Z,0.00
2022-10-14T04:45:56.888Z,0.00
2022-10-14T04:46:57.095Z,0.00
2022-10-14T04:47:57.249Z,0.00
2022-10-14T04:48:57.424Z,0.00
2022-10-14T04:49:57.604Z,0.00
2022-10-14T04:50:57.765Z,0.00
2022-10-14T04:51:57.955Z,0.00
2022-10-14T04:52:58.114Z,0.00
2022-10-14T04:53:58.315Z,0.00
2022-10-14T04:54:58.459Z,0.00
2022-10-14T04:55:58.642Z,0.00
2022-10-14T04:56:58.831Z,0.00
2022-10-14T04:57:58.986Z,0.00
2022-10-14T04:58:59.166Z,0.00
2022-10-14T04:59:59.316Z,0.00
2022-10-14T05:00:59.485Z,0.00
2022-10-14T05:01:59.704Z,0.00
2022-10-14T05:02:59.814Z,4.00
2022-10-14T05:03:59.985Z,4.00
2022-10-14T05:05:00.170Z,0.00
2022-10-14T05:06:00.334Z,4.00
2022-10-14T05:07:00.535Z,4.00
2022-10-14T05:08:00.674Z,4.00
2022-10-14T05:09:00.844Z,8.00
2022-10-14T05:10:01.035Z,8.00
2022-10-14T05:11:01.193Z,8.00
2022-10-14T05:12:01.396Z,8.00
2022-10-14T05:13:01.568Z,12.00
2022-10-14T05:14:01.714Z,16.00
2022-10-14T05:15:01.905Z,20.00
2022-10-14T05:16:02.065Z,20.00
2022-10-14T05:17:02.248Z,24.00
2022-10-14T05:18:02.405Z,28.00
2022-10-14T05:19:02.606Z,36.00
2022-10-14T05:20:02.754Z,36.00
2022-10-14T05:21:02.953Z,44.00
2022-10-14T05:22:03.132Z,48.00
2022-10-14T05:23:03.306Z,52.00
2022-10-14T05:24:03.464Z,64.00
2022-10-14T05:25:03.633Z,68.00
2022-10-14T05:26:03.794Z,80.00
2022-10-14T05:27:03.979Z,84.00
2022-10-14T05:28:04.133Z,96.00
2022-10-14T05:29:04.296Z,104.00
2022-10-14T05:30:04.471Z,112.00
2022-10-14T05:31:04.660Z,128.00
2022-10-14T05:32:04.854Z,136.00
2022-10-14T05:33:05.013Z,152.00
2022-10-14T05:34:05.192Z,164.00
2022-10-14T05:35:05.373Z,176.00
2022-10-14T05:36:05.530Z,192.00
2022-10-14T05:37:05.742Z,208.00
2022-10-14T05:38:05.895Z,228.00
2022-10-14T05:39:06.075Z,252.00
2022-10-14T05:40:06.246Z,276.00
2022-10-14T05:41:06.416Z,300.00
2022-10-14T05:42:06.592Z,324.00
2022-10-14T05:43:06.762Z,340.00
2022-10-14T05:44:06.913Z,356.00
2022-10-14T05:45:07.133Z,372.00
2022-10-14T05:46:07.286Z,376.00
2022-10-14T05:47:07.444Z,376.00
2022-10-14T05:48:07.600Z,384.00
2022-10-14T05:49:07.784Z,400.00
2022-10-14T05:50:07.996Z,416.00
2022-10-14T05:51:08.168Z,428.00
2022-10-14T05:52:08.315Z,448.00
2022-10-14T05:53:08.538Z,464.00
2022-10-14T05:54:08.684Z,472.00
2022-10-14T05:55:08.859Z,484.00
2022-10-14T05:56:09.016Z,496.00
2022-10-14T05:57:09.208Z,516.00
2022-10-14T05:58:09.384Z,544.00
2022-10-14T05:59:09.583Z,580.00
2022-10-14T06:00:09.771Z,616.00
2022-10-14T06:01:09.944Z,648.00
2022-10-14T06:02:10.115Z,692.00
2022-10-14T06:03:10.326Z,748.00
2022-10-14T06:04:10.473Z,796.00
2022-10-14T06:05:10.683Z,836.00
2022-10-14T06:06:10.841Z,892.00
2022-10-14T06:07:11.026Z,920.00
2022-10-14T06:08:11.173Z,936.00
2022-10-14T06:09:11.693Z,964.00
2022-10-14T06:10:11.564Z,992.00
2022-10-14T06:11:11.701Z,1028.00
2022-10-14T06:12:11.862Z,1052.00
2022-10-14T06:13:12.033Z,1068.00
2022-10-14T06:14:12.203Z,1088.00
2022-10-14T06:15:12.443Z,1092.00
2022-10-14T06:16:12.560Z,1100.00
2022-10-14T06:17:12.751Z,1100.00
2022-10-14T06:18:12.914Z,1116.00
2022-10-14T06:19:13.121Z,1152.00
2022-10-14T06:20:13.311Z,1196.00
2022-10-14T06:21:13.515Z,1260.00
2022-10-14T06:22:13.623Z,1324.00
2022-10-14T06:23:13.782Z,1372.00
2022-10-14T06:24:13.933Z,1400.00
2022-10-14T06:25:14.155Z,1428.00
2022-10-14T06:26:14.312Z,1468.00
2022-10-14T06:27:14.472Z,1532.00
2022-10-14T06:28:14.719Z,1596.00
2022-10-14T06:29:14.831Z,1652.00
2022-10-14T06:30:14.996Z,1708.00
2022-10-14T06:31:15.159Z,1752.00
2022-10-14T06:32:15.410Z,1772.00
2022-10-14T06:33:15.473Z,1804.00
2022-10-14T06:34:15.635Z,1836.00
2022-10-14T06:35:15.832Z,1884.00
2022-10-14T06:36:15.984Z,1928.00
2022-10-14T06:37:16.142Z,1952.00
2022-10-14T06:38:16.301Z,1964.00
2022-10-14T06:39:16.504Z,1972.00
2022-10-14T06:40:16.672Z,1964.00
2022-10-14T06:41:16.850Z,1964.00
2022-10-14T06:42:17.010Z,1968.00
2022-10-14T06:43:17.164Z,1964.00
2022-10-14T06:44:17.322Z,1940.00
2022-10-14T06:45:17.521Z,1940.00
2022-10-14T06:46:17.662Z,1956.00
2022-10-14T06:47:17.833Z,1980.00
2022-10-14T06:48:18.001Z,2024.00
2022-10-14T06:49:18.177Z,2084.00
2022-10-14T06:50:18.363Z,2168.00
2022-10-14T06:51:18.531Z,2284.00
2022-10-14T06:52:18.866Z,2412.00
2022-10-14T06:53:18.885Z,2520.00
2022-10-14T06:54:19.057Z,2588.00
2022-10-14T06:55:19.221Z,2644.00
2022-10-14T06:56:19.378Z,2704.00
2022-10-14T06:57:19.537Z,2760.00
2022-10-14T06:58:19.692Z,2792.00
2022-10-14T06:59:19.861Z,2768.00
2022-10-14T07:00:20.542Z,2752.00
2022-10-14T07:01:20.205Z,2804.00
2022-10-14T07:02:20.705Z,2924.00
2022-10-14T07:03:20.544Z,3092.00
2022-10-14T07:04:20.701Z,3260.00
2022-10-14T07:05:20.882Z,3500.00
2022-10-14T07:06:21.021Z,3680.00
2022-10-14T07:07:21.222Z,3844.00
2022-10-14T07:08:21.383Z,3984.00
2022-10-14T07:09:21.552Z,4068.00
2022-10-14T07:10:21.731Z,4196.00
2022-10-14T07:11:21.913Z,4300.00
2022-10-14T07:12:22.383Z,4404.00
2022-10-14T07:13:22.232Z,4568.00
2022-10-14T07:14:22.421Z,4676.00
2022-10-14T07:15:22.625Z,4776.00
2022-10-14T07:16:22.732Z,4828.00
2022-10-14T07:17:23.351Z,4876.00
2022-10-14T07:18:23.095Z,4868.00
2022-10-14T07:19:23.334Z,4916.00
2022-10-14T07:20:23.534Z,5024.00
2022-10-14T07:21:23.593Z,5224.00
2022-10-14T07:22:24.152Z,5472.00
2022-10-14T07:23:23.931Z,5636.00
2022-10-14T07:24:24.092Z,5760.00
2022-10-14T07:25:24.273Z,5868.00
2022-10-14T07:26:24.473Z,6088.00
2022-10-14T07:27:24.842Z,6344.00
2022-10-14T07:28:24.779Z,6520.00
2022-10-14T07:29:24.945Z,6476.00
2022-10-14T07:30:25.103Z,6504.00
2022-10-14T07:31:25.262Z,6672.00
2022-10-14T07:32:25.445Z,6684.00
2022-10-14T07:33:25.704Z,6528.00
2022-10-14T07:34:25.762Z,6428.00
2022-10-14T07:35:25.944Z,6180.00
2022-10-14T07:36:26.083Z,5916.00
2022-10-14T07:37:26.287Z,5756.00
2022-10-14T07:38:26.432Z,5588.00
2022-10-14T07:39:27.123Z,5392.00
2022-10-14T07:40:26.792Z,5324.00
2022-10-14T07:41:26.992Z,5476.00
2022-10-14T07:42:27.145Z,5732.00
2022-10-14T07:43:27.341Z,5972.00
2022-10-14T07:44:27.682Z,6220.00
2022-10-14T07:45:27.672Z,6416.00
2022-10-14T07:46:27.823Z,6632.00
2022-10-14T07:47:28.010Z,6676.00
2022-10-14T07:48:32.789Z,6692.00
2022-10-14T07:49:29.444Z,6792.00
2022-10-14T07:50:28.514Z,7000.00
2022-10-14T07:51:28.673Z,7556.00
2022-10-14T07:52:28.882Z,7644.00
2022-10-14T07:53:29.001Z,7584.00
2022-10-14T07:54:29.173Z,7720.00
2022-10-14T07:55:29.353Z,8256.00
2022-10-14T07:56:29.534Z,8944.00
2022-10-14T07:57:29.691Z,10232.00
2022-10-14T07:58:29.853Z,8972.00
2022-10-14T07:59:30.072Z,8632.00
2022-10-14T08:00:30.259Z,8868.00
2022-10-14T08:01:30.413Z,8884.00
2022-10-14T08:02:30.599Z,8808.00
2022-10-14T08:03:30.741Z,8896.00
2022-10-14T08:04:30.914Z,8680.00
2022-10-14T08:05:38.050Z,8488.00
2022-10-14T08:06:32.253Z,7816.00
2022-10-14T08:07:31.414Z,7580.00
2022-10-14T08:08:31.574Z,7528.00
2022-10-14T08:09:31.756Z,7548.00
2022-10-14T08:10:31.905Z,7512.00
2022-10-14T08:11:32.079Z,7416.00
2022-10-14T08:12:32.234Z,7380.00
2022-10-14T08:13:32.445Z,7396.00
2022-10-14T08:14:32.617Z,7476.00
2022-10-14T08:15:32.774Z,7548.00
2022-10-14T08:16:32.937Z,7664.00
2022-10-14T08:17:33.115Z,7664.00
2022-10-14T08:18:33.294Z,7712.00
2022-10-14T08:19:33.559Z,7872.00
2022-10-14T08:20:33.686Z,8088.00
2022-10-14T08:21:33.835Z,8324.00
2022-10-14T08:22:34.014Z,8344.00
2022-10-14T08:23:34.205Z,8472.00
2022-10-14T08:24:34.365Z,8644.00
2022-10-14T08:25:34.535Z,8792.00
2022-10-14T08:26:34.695Z,8836.00
2022-10-14T08:27:34.893Z,8896.00
2022-10-14T08:28:35.108Z,9116.00
2022-10-14T08:29:35.279Z,9052.00
2022-10-14T08:30:35.400Z,9208.00
2022-10-14T08:31:35.605Z,9272.00
2022-10-14T08:32:35.767Z,9300.00
2022-10-14T08:33:35.936Z,9500.00
2022-10-14T08:34:36.105Z,9756.00
2022-10-14T08:35:36.268Z,10220.00
2022-10-14T08:36:36.467Z,10748.00
2022-10-14T08:37:36.638Z,16576.00
2022-10-14T08:38:36.839Z,11632.00
2022-10-14T08:39:36.986Z,11372.00
2022-10-14T08:40:37.166Z,10948.00
2022-10-14T08:41:37.415Z,13988.00
2022-10-14T08:42:37.537Z,13052.00
2022-10-14T08:43:37.721Z,15056.00
2022-10-14T08:44:37.932Z,18208.00
2022-10-14T08:45:38.066Z,15752.00
2022-10-14T08:46:38.227Z,14708.00
2022-10-14T08:47:38.400Z,18464.00
2022-10-14T08:48:38.573Z,30144.00
2022-10-14T08:49:38.767Z,13820.00
2022-10-14T08:50:38.908Z,12904.00
2022-10-14T08:51:39.113Z,13064.00
2022-10-14T08:52:39.290Z,12100.00
2022-10-14T08:53:39.514Z,13036.00
2022-10-14T08:54:39.649Z,15248.00
2022-10-14T08:55:39.819Z,15304.00
2022-10-14T08:56:39.969Z,17664.00
2022-10-14T08:57:40.168Z,20832.00
2022-10-14T08:58:40.332Z,16000.00
2022-10-14T08:59:40.518Z,24192.00
2022-10-14T09:00:40.675Z,17600.00
2022-10-14T09:01:40.840Z,21408.00
2022-10-14T09:02:41.030Z,16164.00
2022-10-14T09:03:41.233Z,17024.00
2022-10-14T09:04:41.399Z,18272.00
2022-10-14T09:05:41.553Z,22368.00
2022-10-14T09:06:41.739Z,31648.00
2022-10-14T09:07:41.964Z,19936.00
2022-10-14T09:08:42.092Z,23968.00
2022-10-14T09:09:42.301Z,16672.00
2022-10-14T09:10:42.478Z,21504.00
2022-10-14T09:11:42.620Z,30176.00
2022-10-14T09:12:42.800Z,12508.00
2022-10-14T09:13:42.942Z,11356.00
2022-10-14T09:14:43.188Z,13360.00
2022-10-14T09:15:43.292Z,9960.00
2022-10-14T09:16:43.493Z,11848.00
2022-10-14T09:17:43.653Z,18528.00
2022-10-14T09:18:43.842Z,23904.00
2022-10-14T09:19:44.032Z,23808.00
2022-10-14T09:20:44.192Z,14116.00
2022-10-14T09:21:53.094Z,17248.00
2022-10-14T09:22:45.610Z,16992.00
2022-10-14T09:23:44.711Z,18208.00
2022-10-14T09:24:44.932Z,17664.00
2022-10-14T09:25:45.083Z,15540.00
2022-10-14T09:26:45.286Z,14036.00
2022-10-14T09:28:45.702Z,17152.00
2022-10-14T09:29:45.794Z,26624.00
2022-10-14T09:30:45.951Z,17184.00
2022-10-14T09:31:46.124Z,13980.00
2022-10-14T09:32:46.303Z,12896.00
2022-10-14T09:33:46.484Z,11864.00
2022-10-14T09:34:46.694Z,11756.00
2022-10-14T09:35:46.891Z,10284.00
2022-10-14T09:36:47.028Z,11136.00
2022-10-14T09:37:47.174Z,11832.00
2022-10-14T09:38:47.356Z,10848.00
2022-10-14T09:39:47.545Z,10864.00
2022-10-14T09:40:47.734Z,10096.00
2022-10-14T09:41:47.905Z,9568.00
2022-10-14T09:42:48.106Z,9228.00
2022-10-14T09:43:48.277Z,8964.00
2022-10-14T09:44:48.494Z,8856.00
2022-10-14T09:45:48.635Z,8440.00
2022-10-14T09:46:48.825Z,8472.00
2022-10-14T09:47:48.996Z,8212.00
2022-10-14T09:48:49.191Z,8024.00
2022-10-14T09:49:49.349Z,7944.00
2022-10-14T09:50:49.497Z,8312.00
2022-10-14T09:51:49.659Z,7864.00
2022-10-14T09:52:49.860Z,7952.00
2022-10-14T09:53:50.018Z,8080.00
2022-10-14T09:55:50.356Z,8508.00
2022-10-14T09:56:50.527Z,8272.00
2022-10-14T09:57:50.687Z,7596.00
2022-10-14T09:58:50.888Z,7580.00
2022-10-14T09:59:51.049Z,7248.00
2022-10-14T10:00:51.227Z,7612.00
2022-10-14T10:01:51.382Z,8712.00
2022-10-14T10:02:51.561Z,9736.00
2022-10-14T10:03:51.844Z,10640.00
2022-10-14T10:04:51.908Z,11572.00
2022-10-14T10:05:52.088Z,12432.00
2022-10-14T10:06:52.463Z,11836.00
2022-10-14T10:07:52.427Z,11508.00
2022-10-14T10:08:52.622Z,10904.00
2022-10-14T10:09:52.793Z,10108.00
2022-10-14T10:10:52.993Z,8604.00
2022-10-14T10:11:53.151Z,8188.00
2022-10-14T10:12:53.309Z,8124.00
2022-10-14T10:13:53.471Z,8592.00
2022-10-14T10:14:53.680Z,9096.00
2022-10-14T10:15:53.839Z,9680.00
2022-10-14T10:16:54.042Z,10224.00
2022-10-14T10:17:54.190Z,10144.00
2022-10-14T10:18:54.385Z,10164.00
2022-10-14T10:19:54.570Z,10376.00
2022-10-14T10:20:54.750Z,10580.00
2022-10-14T10:21:54.911Z,10356.00
2022-10-14T10:22:55.091Z,10224.00
2022-10-14T10:23:55.286Z,10036.00
2022-10-14T10:24:55.474Z,9624.00
2022-10-14T10:25:55.626Z,9184.00
2022-10-14T10:26:55.782Z,8644.00
2022-10-14T10:27:55.920Z,8176.00
2022-10-14T10:28:56.159Z,7960.00
2022-10-14T10:29:56.329Z,8024.00
2022-10-14T10:30:56.472Z,7916.00
2022-10-14T10:31:56.686Z,7612.00
2022-10-14T10:32:56.832Z,7472.00
2022-10-14T10:33:57.011Z,7640.00
2022-10-14T10:34:57.191Z,7956.00
2022-10-14T10:35:57.364Z,8324.00
2022-10-14T10:36:57.523Z,8876.00
2022-10-14T10:37:57.732Z,9704.00
2022-10-14T10:38:57.873Z,9860.00
2022-10-14T10:39:58.043Z,9304.00
2022-10-14T10:40:58.203Z,8548.00
2022-10-14T10:41:58.374Z,7864.00
2022-10-14T10:42:58.554Z,7088.00
2022-10-14T10:43:58.712Z,6436.00
2022-10-14T10:44:58.924Z,6160.00
2022-10-14T10:45:59.063Z,5792.00
2022-10-14T10:46:59.225Z,5388.00
2022-10-14T10:47:59.384Z,5036.00
2022-10-14T10:48:59.544Z,4628.00
2022-10-14T10:49:59.766Z,4584.00
2022-10-14T10:50:59.892Z,5200.00
2022-10-14T10:52:00.045Z,5680.00
2022-10-14T10:53:00.243Z,5236.00
2022-10-14T10:54:00.394Z,5092.00
2022-10-14T10:55:00.615Z,5164.00
2022-10-14T10:56:00.746Z,5148.00
2022-10-14T10:57:00.922Z,4892.00
2022-10-14T10:58:03.644Z,4864.00
2022-10-14T10:59:02.255Z,4836.00
2022-10-14T11:00:01.434Z,4756.00
2022-10-14T11:01:01.692Z,4664.00
2022-10-14T11:02:01.817Z,4716.00
2022-10-14T11:03:01.975Z,5000.00
2022-10-14T11:04:02.134Z,4608.00
2022-10-14T11:05:02.316Z,4140.00
2022-10-14T11:06:02.466Z,4248.00
2022-10-14T11:07:02.618Z,4444.00
2022-10-14T11:08:02.787Z,4212.00
2022-10-14T11:09:02.945Z,4484.00
2022-10-14T11:10:03.133Z,4992.00
2022-10-14T11:11:03.298Z,5064.00
2022-10-14T11:12:03.485Z,5644.00
2022-10-14T11:13:03.625Z,5888.00
2022-10-14T11:14:03.787Z,6412.00
2022-10-14T11:15:03.976Z,6812.00
2022-10-14T11:16:04.126Z,6652.00
2022-10-14T11:17:04.287Z,6264.00
2022-10-14T11:18:04.436Z,5996.00
2022-10-14T11:19:04.628Z,6000.00
2022-10-14T11:20:04.808Z,5848.00
2022-10-14T11:21:04.986Z,5796.00
2022-10-14T11:22:05.176Z,5224.00
2022-10-14T11:23:05.317Z,4856.00
2022-10-14T11:24:05.553Z,4764.00
2022-10-14T11:25:05.708Z,4836.00
2022-10-14T11:26:05.828Z,5120.00
2022-10-14T11:27:05.998Z,5000.00
2022-10-14T11:28:06.148Z,4564.00
2022-10-14T11:29:06.308Z,4192.00
2022-10-14T11:30:06.669Z,4088.00
2022-10-14T11:31:06.659Z,4540.00
2022-10-14T11:32:06.819Z,5580.00
2022-10-14T11:33:06.979Z,5836.00
2022-10-14T11:34:07.142Z,6044.00
2022-10-14T11:35:07.339Z,5776.00
2022-10-14T11:36:07.469Z,5956.00
2022-10-14T11:37:07.731Z,6144.00
2022-10-14T11:38:07.840Z,6332.00
2022-10-14T11:39:08.026Z,5900.00
2022-10-14T11:40:08.172Z,6300.00
2022-10-14T11:41:08.348Z,6720.00
2022-10-14T11:42:08.489Z,6916.00
2022-10-14T11:43:08.649Z,6784.00
2022-10-14T11:44:08.854Z,6948.00
2022-10-14T11:45:08.989Z,7164.00
2022-10-14T11:46:09.176Z,7200.00
2022-10-14T11:47:09.344Z,7240.00
2022-10-14T11:48:09.599Z,7292.00
2022-10-14T11:49:09.691Z,7912.00
2022-10-14T11:50:09.851Z,7764.00
2022-10-14T11:51:10.010Z,7716.00
2022-10-14T11:52:10.192Z,7548.00
2022-10-14T11:53:10.360Z,6892.00
2022-10-14T11:54:10.581Z,6988.00
2022-10-14T11:55:13.795Z,6832.00
2022-10-14T11:56:10.876Z,6436.00
2022-10-14T11:57:11.017Z,7052.00
2022-10-14T11:58:11.171Z,6568.00
2022-10-14T11:59:11.351Z,6040.00
2022-10-14T12:00:11.628Z,6264.00
2022-10-14T12:01:11.730Z,6304.00
2022-10-14T12:02:11.965Z,5824.00
2022-10-14T12:03:12.161Z,5092.00
2022-10-14T12:04:12.273Z,4924.00
2022-10-14T12:05:12.411Z,4804.00
2022-10-14T12:06:12.598Z,5072.00
2022-10-14T12:07:12.771Z,5120.00
2022-10-14T12:08:12.963Z,5044.00
2022-10-14T12:09:13.145Z,5100.00
2022-10-14T12:10:13.382Z,5012.00
2022-10-14T12:11:13.452Z,4800.00
2022-10-14T12:12:13.632Z,4520.00
2022-10-14T12:13:13.815Z,4436.00
2022-10-14T12:14:14.003Z,4496.00
2022-10-14T12:15:14.193Z,4420.00
2022-10-14T12:16:14.376Z,4516.00
2022-10-14T12:17:17.558Z,4960.00
2022-10-14T12:18:14.775Z,5460.00
2022-10-14T12:19:14.934Z,5660.00
2022-10-14T12:20:15.074Z,6024.00
2022-10-14T12:21:15.285Z,8192.00
2022-10-14T12:22:15.433Z,9840.00
2022-10-14T12:23:15.593Z,10416.00
2022-10-14T12:24:15.764Z,10980.00
2022-10-14T12:25:15.937Z,9528.00
2022-10-14T12:26:16.086Z,8068.00
2022-10-14T12:27:16.265Z,7076.00
2022-10-14T12:28:16.493Z,7116.00
2022-10-14T12:29:16.698Z,7556.00
2022-10-14T12:30:16.846Z,6940.00
2022-10-14T12:31:16.976Z,6656.00
2022-10-14T12:32:17.174Z,6712.00
2022-10-14T12:33:22.310Z,6364.00
2022-10-14T12:34:18.543Z,6424.00
2022-10-14T12:35:17.704Z,6108.00
2022-10-14T12:36:17.907Z,5744.00
2022-10-14T12:37:18.048Z,5304.00